Latest Weather Observations for Wellcamp Airport

IDQ60801

Issued at 8:22 pm EST Friday 26 February 2021 (issued every 10 minutes, with the page automatically refreshed every 10 minutes)

About weather observations | Map of weather stations | Latest weather observations for QLD | Other Formats
Station Details ID: 541150 Name: WELLCAMP AIRPORT Lat: -27.55 Lon: 151.78 Height: 436.98 m
Data from the previous 72 hours. | See also: Recent months for locations in Queensland
Date/Time
EST
Temp
°C
App
Temp
°C
Dew
Point
°C
Rel
Hum
%
Delta-T
°C
Wind Press
QNH
hPa
Press
MSL
hPa
Rain since
9am
mm
Dir  Spd
km/h
Gust
km/h
Spd
kts
Gust
kts
26/08:00pm 27.6 27.8 17.7 54 6.4 E 13 19 7 10 1011.7 1009.2 0.0
26/07:30pm 27.8 27.5 17.3 52 6.7 E 15 19 8 10 1011.1 1008.6 0.0
26/07:00pm 28.3 27.5 17.2 51 7.1 E 17 22 9 12 1010.5 1007.9 0.0
26/06:30pm 29.0 27.6 16.9 48 7.7 ENE 20 26 11 14 1010.0 1007.5 0.0
26/06:00pm 29.6 27.7 16.8 46 8.2 ENE 22 32 12 17 1009.5 1007.0 0.0
26/05:30pm 30.8 28.4 16.4 42 9.2 ENE 24 35 13 19 1009.3 1006.8 0.0
26/05:00pm 31.4 28.9 16.2 40 9.7 E 24 32 13 17 1009.1 1006.6 0.0
26/04:30pm 31.6 29.6 15.5 37 10.2 ESE 20 32 11 17 1008.9 1006.4 0.0
26/04:00pm 31.9 30.8 15.4 37 10.4 ESE 15 24 8 13 1008.7 1006.2 0.0
26/03:30pm 32.1 31.9 16.8 40 9.8 ESE 13 20 7 11 1008.8 1006.3 0.0
26/03:00pm 31.4 30.9 16.9 41 9.3 E 15 22 8 12 1009.2 1006.7 0.0
26/02:30pm 32.7 33.0 16.9 38 10.2 ESE 11 19 6 10 1009.4 1006.9 0.0
26/02:00pm 32.3 33.0 17.0 40 9.9 ENE 9 17 5 9 1009.8 1007.3 0.0
26/01:30pm 31.4 32.6 16.9 41 9.3 S 6 13 3 7 1010.4 1007.8 0.0
26/01:00pm 30.2 31.4 17.3 46 8.3 ESE 7 15 4 8 1010.8 1008.3 0.0
26/12:30pm 30.3 30.6 17.0 44 8.5 ESE 11 17 6 9 1011.1 1008.6 0.0
26/12:00pm 29.2 30.9 17.1 48 7.8 ENE 4 7 2 4 1011.5 1009.0 0.0
26/11:30am 29.4 30.7 17.2 47 7.8 S 6 13 3 7 1011.9 1009.4 0.0
26/11:00am 29.0 30.5 17.5 49 7.4 SSW 6 9 3 5 1012.1 1009.6 0.0
26/10:30am 29.6 31.3 18.1 50 7.5 SE 6 11 3 6 1012.6 1010.2 0.0
26/10:00am 28.0 28.3 16.9 51 7.1 ENE 11 19 6 10 1012.6 1010.2 0.0
26/09:30am 27.3 28.2 17.5 55 6.3 NNE 9 19 5 10 1012.8 1010.3 0.0
26/09:00am 26.6 28.0 17.7 58 5.7 NE 7 17 4 9 1012.9 1010.4 0.0
26/08:30am 24.9 25.8 18.4 67 4.2 N 11 19 6 10 1013.0 1010.5 0.0
26/08:00am 24.3 24.7 18.2 68 3.9 NNE 13 17 7 9 1012.8 1010.3 0.0
26/07:30am 23.3 23.5 18.6 75 3.0 NNE 15 20 8 11 1012.6 1010.2 0.0
26/07:00am 22.2 24.1 18.6 80 2.3 N 6 9 3 5 1012.4 1009.9 0.0
26/06:30am 20.7 22.5 18.3 86 1.5 NNE 6 11 3 6 1012.1 1009.6 0.0
26/06:00am 19.5 21.0 17.6 89 1.2 NE 6 9 3 5 1011.9 1009.4 0.0
26/05:30am 19.1 19.9 17.2 89 1.2 ENE 9 11 5 6 1011.5 1009.0 0.0
26/05:00am 19.4 21.2 17.4 88 1.2 SSE 4 6 2 3 1011.5 1009.0 0.0
26/04:30am 20.2 21.8 17.8 86 1.5 NE 6 7 3 4 1011.4 1008.9 0.0
26/04:00am 20.9 22.7 18.3 85 1.7 ENE 6 9 3 5 1011.2 1008.7 0.0
26/03:30am 21.0 22.0 18.6 86 1.5 NE 11 17 6 9 1011.3 1008.8 0.0
26/03:00am 21.0 23.2 18.4 85 1.7 ENE 4 7 2 4 1011.6 1009.1 0.0
26/02:30am 21.2 22.4 18.2 83 1.9 ENE 9 13 5 7 1011.9 1009.4 0.0
26/02:03am 21.7 21.9 18.5 82 2.0 NE 15 20 8 11 1011.9 1009.4 0.0
26/02:00am 21.6 21.7 18.4 82 2.0 NE 15 22 8 12 1011.9 1009.4 0.0
26/01:30am 21.9 23.6 18.5 81 2.2 NE 7 11 4 6 1012.3 1009.8 0.0
26/01:00am 22.2 23.7 19.0 82 2.1 NE 9 19 5 10 1012.5 1010.1 0.0
26/12:30am 22.3 23.1 19.1 82 2.1 NNE 13 22 7 12 1012.4 1009.9 0.0
26/12:00am 22.4 22.9 19.2 82 2.1 NE 15 22 8 12 1012.4 1009.9 0.0
 
Date/Time
EST
Temp
°C
App
Temp
°C
Dew
Point
°C
Rel
Hum
%
Delta-T
°C
Wind Press
QNH
hPa
Press
MSL
hPa
Rain since
9am
mm
Dir  Spd
km/h
Gust
km/h
Spd
kts
Gust
kts
25/11:30pm 22.5 23.3 19.9 85 1.7 NE 15 26 8 14 1012.6 1010.2 0.0
25/11:00pm 22.6 24.2 19.9 85 1.8 NE 11 19 6 10 1012.9 1010.4 0.0
25/10:30pm 22.9 24.9 19.9 83 2.0 ENE 9 17 5 9 1012.9 1010.4 0.0
25/10:16pm 23.0 24.2 20.0 83 2.0 ENE 13 20 7 11 1012.9 1010.4 0.0
25/10:00pm 23.2 22.7 20.0 82 2.1 ENE 22 32 12 17 1012.5 1010.1 0.0
25/09:30pm 23.5 21.8 19.8 80 2.4 ENE 28 39 15 21 1012.2 1009.7 0.0
25/09:00pm 23.9 21.8 19.8 78 2.7 E 30 39 16 21 1012.1 1009.6 0.0
25/08:30pm 24.2 22.4 19.5 75 3.1 E 28 41 15 22 1011.8 1009.3 0.0
25/08:00pm 24.4 22.4 19.2 73 3.4 E 28 35 15 19 1011.4 1008.9 0.0
25/07:30pm 24.6 22.6 19.2 72 3.5 E 28 39 15 21 1011.2 1008.7 0.0
25/07:00pm 24.8 23.3 19.4 72 3.5 E 26 35 14 19 1011.0 1008.5 0.0
25/06:30pm 25.3 23.8 19.4 70 3.9 ENE 26 35 14 19 1010.8 1008.3 0.0
25/06:00pm 26.3 25.5 19.2 65 4.6 E 22 32 12 17 1010.6 1008.1 0.0
25/05:30pm 26.6 24.6 19.2 64 4.8 E 28 35 15 19 1010.5 1007.9 0.0
25/05:00pm 27.2 25.8 18.8 60 5.5 ENE 24 30 13 16 1010.3 1007.7 0.0
25/04:30pm 27.6 26.7 18.3 57 6.0 ENE 20 32 11 17 1010.3 1007.7 0.0
25/04:00pm 29.3 27.2 18.1 51 7.3 ENE 26 33 14 18 1010.1 1007.6 0.0
25/03:30pm 28.6 28.0 18.4 54 6.6 ESE 19 32 10 17 1010.3 1007.7 0.0
25/03:00pm 29.2 28.7 19.2 54 6.6 ESE 20 30 11 16 1010.7 1008.2 0.0
25/02:30pm 27.2 28.0 19.8 64 4.9 E 15 22 8 12 1011.0 1008.5 0.0
25/02:00pm 29.1 28.4 17.3 49 7.6 E 17 28 9 15 1011.3 1008.8 0.0
25/01:30pm 28.0 27.6 18.1 55 6.4 E 17 28 9 15 1011.7 1009.2 0.0
25/01:00pm 27.9 27.6 18.3 56 6.2 ESE 17 20 9 11 1012.3 1009.8 0.0
25/12:30pm 28.9 28.1 17.1 49 7.5 NE 17 26 9 14 1012.9 1010.4 0.0
25/12:00pm 28.1 28.9 18.2 55 6.4 E 11 19 6 10 1013.2 1010.7 0.0
25/11:30am 27.0 26.7 18.3 59 5.6 ENE 17 32 9 17 1013.7 1011.2 0.0
25/11:00am 26.8 26.0 18.4 60 5.4 E 20 30 11 16 1014.1 1011.6 0.0
25/10:30am 26.0 25.3 18.7 64 4.7 E 20 30 11 16 1014.5 1012.0 0.0
25/10:00am 25.8 25.0 19.2 67 4.3 E 22 32 12 17 1014.6 1012.2 0.0
25/09:30am 24.8 24.5 19.6 73 3.4 E 20 28 11 15 1014.5 1012.0 0.0
25/09:00am 23.4 22.7 19.5 79 2.5 ENE 22 28 12 15 1014.7 1012.3 0.6
25/08:44am 23.8 24.4 20.3 81 2.3 ENE 17 28 9 15 1014.7 1012.3 0.6
25/08:34am 22.8 23.5 20.5 87 1.5 ENE 17 22 9 12 1014.7 1012.3 0.6
25/08:30am 22.6 23.3 20.5 88 1.4 ENE 17 22 9 12 1014.7 1012.3 0.6
25/08:06am 21.3 22.3 19.4 89 1.2 E 13 19 7 10 1014.7 1012.3 0.4
25/08:04am 21.5 22.3 19.8 90 1.1 E 15 19 8 10 1014.7 1012.3 0.4
25/08:03am 21.5 22.3 19.8 90 1.1 E 15 19 8 10 1014.6 1012.2 0.4
25/08:00am 21.5 22.3 19.8 90 1.1 E 15 19 8 10 1014.6 1012.2 0.4
25/07:48am 21.4 21.7 19.7 90 1.1 E 17 26 9 14 1014.7 1012.3 0.4
25/07:45am 21.4 21.3 19.5 89 1.2 E 19 26 10 14 1014.6 1012.2 0.4
25/07:40am 21.3 21.3 19.0 87 1.5 ENE 17 22 9 12 1014.6 1012.2 0.4
25/07:30am 21.3 22.0 19.6 90 1.1 ENE 15 20 8 11 1014.7 1012.3 0.4
25/07:18am 21.6 22.9 19.3 87 1.5 ENE 11 17 6 9 1014.5 1012.0 0.2
25/07:00am 21.9 22.6 18.9 83 1.9 ENE 13 20 7 11 1014.0 1011.5 0.2
25/06:33am 21.6 21.5 18.8 84 1.8 E 17 22 9 12 1013.7 1011.2 0.2
25/06:30am 21.6 21.5 18.8 84 1.8 E 17 22 9 12 1013.6 1011.1 0.2
25/06:00am 21.0 20.8 18.4 85 1.7 ESE 17 22 9 12 1013.3 1010.8 0.2
25/05:30am 20.9 21.4 18.3 85 1.6 E 13 19 7 10 1013.2 1010.7 0.2
25/05:00am 21.2 20.9 18.2 83 1.9 E 17 22 9 12 1013.1 1010.6 0.2
25/04:30am 21.6 21.7 18.4 82 2.0 E 15 20 8 11 1013.2 1010.7 0.2
25/04:15am 21.6 21.8 18.6 83 1.9 E 15 22 8 12 1013.1 1010.6 0.2
25/04:00am 21.6 22.0 19.0 85 1.7 E 15 20 8 11 1013.0 1010.5 0.2
25/03:30am 21.8 22.2 19.0 84 1.8 ENE 15 22 8 12 1012.9 1010.4 0.2
25/03:00am 21.6 21.6 19.0 85 1.7 E 17 24 9 13 1012.6 1010.2 0.2
25/02:59am 21.6 21.6 19.0 85 1.7 E 17 24 9 13 1012.6 1010.2 0.2
25/02:30am 21.5 22.3 19.1 86 1.5 ENE 13 22 7 12 1013.0 1010.5 0.2
25/02:13am 21.6 21.6 19.0 85 1.7 ENE 17 26 9 14 1012.9 1010.4 0.2
25/02:00am 21.6 21.5 18.8 84 1.8 ENE 17 28 9 15 1012.9 1010.4 0.2
25/01:30am 21.7 20.3 18.9 84 1.8 E 24 32 13 17 1012.8 1010.3 0.2
25/01:00am 21.8 20.8 18.8 83 1.9 ENE 22 35 12 19 1013.3 1010.8 0.2
25/12:30am 21.8 20.9 19.0 84 1.8 ENE 22 30 12 16 1013.1 1010.6 0.2
25/12:00am 21.7 21.8 19.1 85 1.7 E 17 22 9 12 1013.9 1011.4 0.2
 
Date/Time
EST
Temp
°C
App
Temp
°C
Dew
Point
°C
Rel
Hum
%
Delta-T
°C
Wind Press
QNH
hPa
Press
MSL
hPa
Rain since
9am
mm
Dir  Spd
km/h
Gust
km/h
Spd
kts
Gust
kts
24/11:30pm 21.8 21.5 19.2 85 1.7 ENE 19 22 10 12 1014.6 1012.2 0.2
24/11:00pm 22.3 21.9 18.9 81 2.2 NE 19 30 10 16 1015.0 1012.6 0.0
24/10:30pm 22.7 22.1 18.5 77 2.7 NE 19 30 10 16 1014.8 1012.4 0.0
24/10:16pm 22.8 22.6 18.6 77 2.7 NE 17 24 9 13 1014.9 1012.5 0.0
24/10:05pm 22.7 23.0 18.7 78 2.6 ENE 15 22 8 12 1015.0 1012.6 0.0
24/10:00pm 22.8 22.7 18.8 78 2.6 ENE 17 24 9 13 1015.0 1012.6 0.0
24/09:30pm 22.8 20.6 18.6 77 2.7 ENE 28 37 15 20 1014.1 1011.6 0.0
24/09:00pm 23.0 21.5 18.5 76 2.9 E 24 33 13 18 1014.0 1011.5 0.0
24/08:30pm 23.1 20.9 17.8 72 3.4 E 26 39 14 21 1013.4 1010.9 0.0
24/08:00pm 23.7 19.9 17.2 67 4.1 E 33 44 18 24 1012.1 1009.6 0.0
24/07:30pm 24.0 21.5 17.0 65 4.4 E 26 41 14 22 1012.2 1009.7 0.0
24/07:00pm 24.4 22.6 17.9 67 4.1 ENE 24 32 13 17 1012.6 1010.2 0.0
24/06:30pm 24.9 22.0 17.9 65 4.5 ENE 30 43 16 23 1011.9 1009.4 0.0
24/06:00pm 25.6 22.5 18.3 64 4.7 ENE 32 46 17 25 1011.1 1008.6 0.0
24/05:30pm 26.1 23.3 18.2 61 5.1 ENE 30 41 16 22 1011.4 1008.9 0.0
24/05:00pm 27.3 24.7 17.8 56 6.1 ENE 28 39 15 21 1011.3 1008.8 0.0
24/04:30pm 27.6 24.1 18.0 55 6.2 E 33 44 18 24 1010.9 1008.4 0.0
24/04:00pm 29.0 24.6 18.4 52 6.9 E 39 50 21 27 1010.5 1007.9 0.0
24/03:30pm 29.7 26.2 17.5 48 7.9 E 32 43 17 23 1010.9 1008.4 0.0
24/03:00pm 29.3 26.7 17.8 50 7.4 E 28 43 15 23 1011.4 1008.9 0.0
24/02:50pm 30.0 27.4 17.8 48 7.9 E 28 46 15 25 1011.4 1008.9 0.0
24/02:30pm 28.9 26.3 16.8 48 7.7 ENE 26 37 14 20 1011.9 1009.4 0.0
24/02:00pm 30.2 27.6 16.9 44 8.5 ENE 26 37 14 20 1012.4 1009.9 0.0
24/01:40pm 30.1 27.5 17.9 48 7.9 ENE 28 46 15 25 1012.8 1010.3 0.0
24/01:30pm 29.2 26.1 17.4 49 7.6 ENE 30 41 16 22 1013.0 1010.5 0.0
24/01:20pm 29.1 26.0 17.6 50 7.4 ENE 30 48 16 26 1013.0 1010.5 0.0
24/01:00pm 28.5 25.9 17.7 52 7.0 ENE 28 41 15 22 1013.3 1010.8 0.0
24/12:30pm 28.6 26.1 18.1 53 6.8 ENE 28 39 15 21 1013.9 1011.4 0.0
24/12:00pm 27.6 24.8 18.3 57 6.0 E 30 41 16 22 1014.2 1011.7 0.0
24/11:30am 27.4 24.0 17.8 55 6.2 ENE 32 41 17 22 1014.4 1011.9 0.0
24/11:00am 27.1 24.0 18.4 59 5.6 ENE 32 46 17 25 1014.6 1012.2 0.0
24/10:30am 26.5 22.8 18.4 61 5.2 E 35 46 19 25 1014.9 1012.5 0.0
24/10:00am 25.5 21.5 17.7 62 5.0 ENE 35 46 19 25 1014.8 1012.4 0.0
24/09:30am 25.3 20.8 18.2 64 4.6 E 39 50 21 27 1014.2 1011.7 0.0
24/09:00am 24.6 20.2 17.6 65 4.4 E 37 50 20 27 1014.2 1011.7 0.4
24/08:30am 24.4 21.5 17.9 67 4.1 ENE 30 46 16 25 1014.2 1011.7 0.4
24/08:26am 24.0 21.4 17.7 68 4.0 E 28 46 15 25 1014.1 1011.6 0.4
24/08:15am 24.2 23.2 17.9 68 4.0 E 20 35 11 19 1014.3 1011.8 0.4
24/08:00am 22.8 20.9 17.7 73 3.2 E 24 37 13 20 1014.1 1011.6 0.4
24/07:30am 21.6 21.0 17.6 78 2.5 E 17 33 9 18 1014.0 1011.5 0.4
24/07:14am 21.2 20.5 17.4 79 2.4 E 17 33 9 18 1014.0 1011.5 0.4
24/07:00am 20.6 21.0 17.2 81 2.1 E 11 22 6 12 1013.8 1011.3 0.4
24/06:30am 19.9 - 16.9 83 1.9 - - - - - 1013.6 1011.1 0.4
24/06:00am 19.5 20.4 16.5 83 1.8 ESE 7 17 4 9 1013.1 1010.6 0.4
24/05:30am 19.4 19.8 16.2 82 2.0 E 9 15 5 8 1012.9 1010.4 0.4
24/05:00am 19.5 19.6 16.5 83 1.8 E 11 20 6 11 1012.6 1010.2 0.4
24/04:30am 19.2 19.7 16.6 85 1.6 E 9 15 5 8 1012.3 1009.8 0.4
24/04:00am 19.2 18.3 16.8 86 1.5 E 17 24 9 13 1012.1 1009.6 0.4
24/03:30am 19.1 18.7 17.1 88 1.2 ENE 15 20 8 11 1012.2 1009.7 0.4
24/03:21am 19.0 18.9 17.0 88 1.2 ENE 13 20 7 11 1012.1 1009.6 0.4
24/03:00am 19.1 17.7 17.1 88 1.2 ENE 20 33 11 18 1012.0 1009.5 0.4
24/02:44am 19.2 18.4 17.0 87 1.4 ENE 17 24 9 13 1012.1 1009.6 0.4
24/02:30am 19.3 18.4 16.9 86 1.5 ENE 17 26 9 14 1012.2 1009.7 0.4
24/02:00am 19.3 17.9 17.1 87 1.4 ENE 20 32 11 17 1012.1 1009.6 0.4
24/01:30am 19.7 20.3 16.9 84 1.7 NE 9 19 5 10 1012.3 1009.8 0.4
24/01:00am 19.5 19.5 17.1 86 1.5 ENE 13 22 7 12 1012.2 1009.7 0.4
24/12:30am 19.5 19.8 17.1 86 1.5 NE 11 20 6 11 1012.8 1010.3 0.4
24/12:00am 20.4 19.9 17.0 81 2.1 E 15 26 8 14 1012.6 1010.2 0.4
 
Date/Time
EST
Temp
°C
App
Temp
°C
Dew
Point
°C
Rel
Hum
%
Delta-T
°C
Wind Press
QNH
hPa
Press
MSL
hPa
Rain since
9am
mm
Dir  Spd
km/h
Gust
km/h
Spd
kts
Gust
kts
23/11:30pm 19.8 19.2 16.6 82 2.0 E 15 24 8 13 1013.2 1010.7 0.4
23/11:00pm 20.0 18.8 16.0 78 2.4 E 17 26 9 14 1013.2 1010.7 0.4
23/10:30pm 20.4 20.0 16.2 77 2.6 ESE 13 33 7 18 1013.4 1010.9 0.4
23/10:00pm 20.2 18.7 16.2 78 2.4 E 19 30 10 16 1013.2 1010.7 0.4
23/09:30pm 20.1 18.0 16.3 79 2.3 E 22 33 12 18 1012.5 1010.1 0.4
23/09:00pm 20.4 19.3 16.4 78 2.5 E 17 26 9 14 1012.6 1010.2 0.4
23/08:30pm 20.6 19.1 16.8 79 2.4 ESE 20 32 11 17 1011.9 1009.4 0.4

Other formats

Comma delimited format used in spreadsheet applications
http://www.bom.gov.au/fwo/IDQ60801/IDQ60801.99435.axf

JavaScript Object Notation format (JSON) in row-major order
http://www.bom.gov.au/fwo/IDQ60801/IDQ60801.99435.json

Data quality

Most of these data are generated automatically and are frequently updated. Quality checks on data are not normally performed. It is possible for incorrect values to appear. Refer to information at About Latest Weather Observations and please check the disclaimer before using these data.